Terminal Aerodrome Forecast
Issued by NWS

Home | Current Version | Previous Version | Text Only | Print | Product List | Glossary On
Versions: 1 2 3 4 5 6 7 8 9 10 11 12 13 14 15 16 17 18
000
FTUS45 KTFX 011121
TAFHVR
TAF
KHVR 011121Z 0112/0212 08006KT P6SM BKN180
     FM012100 21010KT P6SM VCSH SCT100 BKN150 PROB30 0123/0204 -TSRA
      BKN070CB
     FM020500 26008KT P6SM BKN120
     FM020900 23006KT P6SM SKC=

USA.gov is the U.S. government's official web portal to all federal, state and local government web resources and services.